Time;durP1;ratioP1;P1;durP2;ratioP2;P2;SDS_P1;SDS_P2;PMS_P1;PMS_P2;Temp;Humidity;BMP_temperature;BMP_pressure;BME280_temperature;BME280_humidity;BME280_pressure;Samples;Min_cycle;Max_cycle;Signal;HPM_P1;HPM_P2
2021/01/19 00:05:02;;;;;;;6.00;4.10;;;;;;;1.68;100.00;98462.03;3651674;81;44003;-16
2021/01/19 00:10:09;;;;;;;5.77;3.70;;;;;;;1.76;100.00;98461.02;3632421;81;43362;-16
2021/01/19 00:15:15;;;;;;;6.37;3.83;;;;;;;1.67;100.00;98463.81;3592804;81;43710;-16
2021/01/19 00:20:21;;;;;;;6.43;3.97;;;;;;;1.67;100.00;98459.00;3659356;80;43460;-16
2021/01/19 00:25:27;;;;;;;4.63;3.47;;;;;;;1.68;100.00;98458.04;3703707;79;43699;-16
2021/01/19 00:30:33;;;;;;;5.60;3.70;;;;;;;1.75;100.00;98451.34;3678469;80;43467;-16
2021/01/19 00:35:40;;;;;;;4.27;2.97;;;;;;;1.74;100.00;98442.16;3671043;80;44054;-16
2021/01/19 00:40:47;;;;;;;5.53;3.43;;;;;;;1.73;100.00;98435.98;3670079;80;43496;-16
2021/01/19 00:45:54;;;;;;;6.00;3.50;;;;;;;1.77;100.00;98433.50;3686571;80;43034;-16
2021/01/19 00:50:59;;;;;;;4.37;2.90;;;;;;;1.71;100.00;98423.78;3679053;80;44119;-16
2021/01/19 00:56:08;;;;;;;4.97;3.53;;;;;;;1.79;100.00;98423.63;3701570;80;43687;-16
2021/01/19 01:01:14;;;;;;;5.30;3.17;;;;;;;1.76;100.00;98421.67;3691018;79;43767;-16
2021/01/19 01:06:20;;;;;;;3.70;2.80;;;;;;;1.76;100.00;98423.83;3678533;80;43522;-16
2021/01/19 01:11:26;;;;;;;5.33;3.23;;;;;;;1.78;100.00;98420.59;3652949;80;44471;-16
2021/01/19 01:16:31;;;;;;;6.50;3.50;;;;;;;1.81;100.00;98411.56;3693864;80;44074;-16
2021/01/19 01:21:38;;;;;;;4.40;3.60;;;;;;;1.88;100.00;98402.69;3692524;80;43503;-16
2021/01/19 01:26:43;;;;;;;6.73;4.17;;;;;;;1.85;100.00;98402.43;3700979;80;44469;-16
2021/01/19 01:31:49;;;;;;;5.73;3.60;;;;;;;1.82;100.00;98399.48;3703479;79;43702;-16
2021/01/19 01:36:55;;;;;;;6.63;3.87;;;;;;;1.78;100.00;98398.02;3702279;80;43417;-17
2021/01/19 01:42:00;;;;;;;4.77;3.30;;;;;;;1.74;100.00;98399.17;3701143;80;44070;-16
2021/01/19 01:47:08;;;;;;;4.80;3.37;;;;;;;1.74;100.00;98397.02;3658623;80;44082;-16
2021/01/19 01:52:13;;;;;;;4.97;3.83;;;;;;;1.77;100.00;98396.31;3644787;80;43715;-16
2021/01/19 01:57:19;;;;;;;6.07;4.20;;;;;;;1.80;100.00;98394.78;3702320;80;44059;-16
2021/01/19 02:02:25;;;;;;;7.07;4.00;;;;;;;1.80;100.00;98381.50;3696744;79;43715;-16
2021/01/19 02:07:35;;;;;;;4.63;3.10;;;;;;;1.78;100.00;98383.41;3644561;81;44050;-16
2021/01/19 02:12:46;;;;;;;4.00;3.20;;;;;;;1.75;100.00;98378.30;3647580;80;43686;-17
2021/01/19 02:17:55;;;;;;;4.83;3.30;;;;;;;1.79;100.00;98369.17;3703432;80;43722;-16
2021/01/19 02:23:10;;;;;;;3.87;3.10;;;;;;;1.82;100.00;98361.46;3648979;80;44045;-17
2021/01/19 02:28:27;;;;;;;5.90;3.30;;;;;;;1.79;100.00;98357.22;3640729;81;44074;-18
2021/01/19 02:33:37;;;;;;;3.87;3.00;;;;;;;1.76;100.00;98349.46;3683679;80;43437;-18
2021/01/19 02:38:50;;;;;;;4.00;3.33;;;;;;;1.79;100.00;98349.25;3690269;79;43452;-18
2021/01/19 02:44:02;;;;;;;6.07;3.77;;;;;;;1.77;100.00;98345.84;3702122;80;43386;-18
2021/01/19 02:49:08;;;;;;;4.93;3.40;;;;;;;1.74;100.00;98339.42;3673497;80;43719;-18
2021/01/19 02:54:15;;;;;;;6.10;3.97;;;;;;;1.74;100.00;98330.13;3661452;80;43731;-18
2021/01/19 02:59:24;;;;;;;5.40;4.00;;;;;;;1.75;100.00;98323.85;3684481;80;43976;-18
2021/01/19 03:04:31;;;;;;;5.67;3.73;;;;;;;1.74;100.00;98323.97;3693661;80;43686;-18
2021/01/19 03:09:41;;;;;;;4.93;3.47;;;;;;;1.71;100.00;98314.39;3719375;79;44066;-18
2021/01/19 03:14:47;;;;;;;5.17;3.70;;;;;;;1.67;100.00;98306.29;3668372;80;43425;-18
2021/01/19 03:19:53;;;;;;;7.00;3.50;;;;;;;1.65;100.00;98298.41;3637275;81;44196;-16
2021/01/19 03:24:59;;;;;;;4.90;3.50;;;;;;;1.69;100.00;98306.55;3651523;81;43682;-17
2021/01/19 03:30:06;;;;;;;3.57;3.00;;;;;;;1.70;100.00;98302.09;3635937;81;43084;-16
2021/01/19 03:35:13;;;;;;;4.57;3.40;;;;;;;1.81;100.00;98303.52;3630400;81;43424;-16
2021/01/19 03:40:18;;;;;;;5.80;3.30;;;;;;;1.81;100.00;98303.52;3633708;80;44064;-16
2021/01/19 03:45:24;;;;;;;4.27;3.43;;;;;;;1.87;100.00;98281.44;3598834;81;43425;-17
2021/01/19 03:50:31;;;;;;;3.83;3.10;;;;;;;1.83;100.00;98273.68;3649510;81;43663;-18
2021/01/19 03:55:37;;;;;;;4.43;2.90;;;;;;;1.79;100.00;98270.89;3651474;81;43700;-17
2021/01/19 04:00:42;;;;;;;4.50;3.40;;;;;;;1.74;100.00;98258.41;3619957;81;44439;-18
2021/01/19 04:05:48;;;;;;;4.57;3.27;;;;;;;1.67;100.00;98243.39;3611377;81;43301;-18
2021/01/19 04:10:54;;;;;;;5.30;3.50;;;;;;;1.66;100.00;98247.49;3623336;80;44128;-18
2021/01/19 04:16:01;;;;;;;6.00;4.03;;;;;;;1.70;100.00;98237.03;3624128;81;43397;-18
2021/01/19 04:21:06;;;;;;;6.40;4.23;;;;;;;1.76;100.00;98239.23;3626380;81;44047;-18
2021/01/19 04:26:12;;;;;;;6.77;4.53;;;;;;;1.74;100.00;98226.54;3652866;81;43383;-18
2021/01/19 04:31:18;;;;;;;5.93;4.60;;;;;;;1.75;100.00;98218.11;3649343;80;43725;-18
2021/01/19 04:36:24;;;;;;;8.63;5.03;;;;;;;1.76;100.00;98202.05;3608196;81;44207;-18
2021/01/19 04:41:29;;;;;;;7.33;5.47;;;;;;;1.78;100.00;98192.63;3625158;81;43399;-17
2021/01/19 04:46:35;;;;;;;7.80;5.33;;;;;;;1.77;100.00;98190.47;3635437;80;44106;-18
2021/01/19 04:51:42;;;;;;;9.23;5.80;;;;;;;1.73;100.00;98182.34;3636542;81;44043;-17
2021/01/19 04:56:53;;;;;;;9.53;6.03;;;;;;;1.72;100.00;98175.33;3635476;81;43895;-18
2021/01/19 05:02:38;;;;;;;8.63;5.43;;;;;;;1.68;100.00;98168.57;3629953;81;43470;-18
2021/01/19 05:07:47;;;;;;;10.77;6.20;;;;;;;1.69;100.00;98165.79;3637800;81;43329;-17
2021/01/19 05:12:56;;;;;;;12.30;5.97;;;;;;;1.69;100.00;98146.37;3646322;81;43713;-18
2021/01/19 05:18:03;;;;;;;11.60;5.70;;;;;;;1.71;100.00;98153.72;3693111;80;43408;-17
2021/01/19 05:23:08;;;;;;;9.07;5.10;;;;;;;1.71;100.00;98151.55;3630735;80;43282;-17
2021/01/19 05:28:14;;;;;;;6.53;4.00;;;;;;;1.73;100.00;98143.83;3681378;80;43349;-17
2021/01/19 05:33:19;;;;;;;4.70;3.67;;;;;;;1.74;100.00;98142.88;3657747;80;44070;-17
2021/01/19 05:38:25;;;;;;;5.80;3.33;;;;;;;1.80;100.00;98134.94;3620106;82;43335;-18
2021/01/19 05:43:31;;;;;;;5.80;3.40;;;;;;;1.80;100.00;98122.52;3620725;80;43416;-18
2021/01/19 05:48:39;;;;;;;7.77;3.50;;;;;;;1.82;100.00;98115.27;3647549;79;43493;-17
2021/01/19 05:53:51;;;;;;;7.03;3.90;;;;;;;1.79;100.00;98127.93;3671703;80;44041;-17
2021/01/19 05:58:57;;;;;;;5.73;3.20;;;;;;;1.81;100.00;98116.72;3653788;80;43707;-18
2021/01/19 06:04:04;;;;;;;6.30;3.30;;;;;;;1.81;100.00;98109.61;3659240;80;43710;-18
2021/01/19 06:09:13;;;;;;;4.67;3.10;;;;;;;1.82;100.00;98109.95;3674851;80;44151;-18
2021/01/19 06:14:23;;;;;;;5.70;3.10;;;;;;;1.79;100.00;98104.02;3675289;80;43365;-18
2021/01/19 06:19:30;;;;;;;4.47;3.03;;;;;;;1.81;100.00;98101.64;3686628;79;44209;-18
2021/01/19 06:24:41;;;;;;;6.27;3.20;;;;;;;1.78;100.00;98100.53;3673861;79;44651;-17
2021/01/19 06:29:48;;;;;;;4.63;3.23;;;;;;;1.81;100.00;98089.69;3698449;80;43992;-18
2021/01/19 06:34:55;;;;;;;4.27;2.80;;;;;;;1.74;100.00;98099.05;3679205;80;43670;-18
2021/01/19 06:40:03;;;;;;;5.20;2.90;;;;;;;1.72;100.00;98103.63;3700185;80;43468;-18
2021/01/19 06:45:13;;;;;;;6.63;3.00;;;;;;;1.73;100.00;98077.44;3691419;80;44086;-18
2021/01/19 06:50:21;;;;;;;3.10;2.47;;;;;;;1.68;100.00;98076.45;3704607;80;44035;-17
2021/01/19 06:55:35;;;;;;;6.27;2.60;;;;;;;1.65;100.00;98050.62;3683098;79;43963;-18
2021/01/19 07:00:43;;;;;;;4.53;2.50;;;;;;;1.69;100.00;98057.41;3670513;80;44058;-18
2021/01/19 07:05:56;;;;;;;3.90;2.40;;;;;;;1.69;100.00;98049.44;3695507;80;43710;-18
2021/01/19 07:11:05;;;;;;;4.20;2.50;;;;;;;1.72;100.00;98049.19;3675369;80;44019;-18
2021/01/19 07:16:12;;;;;;;5.80;2.40;;;;;;;1.67;100.00;98038.91;3681429;80;43740;-18
2021/01/19 07:21:19;;;;;;;4.40;2.57;;;;;;;1.61;100.00;98030.55;3657595;80;44107;-18
2021/01/19 07:26:31;;;;;;;3.40;2.17;;;;;;;1.68;100.00;98022.02;3638045;80;43991;-17
2021/01/19 07:31:38;;;;;;;3.73;2.20;;;;;;;1.73;100.00;98019.51;3652116;81;43401;-18
2021/01/19 07:37:00;;;;;;;5.47;2.30;;;;;;;1.66;100.00;98012.48;3609100;81;44071;-18
2021/01/19 07:42:18;;;;;;;6.90;1.93;;;;;;;1.67;100.00;98013.69;3635419;81;43330;-17
2021/01/19 07:47:34;;;;;;;4.67;2.17;;;;;;;1.78;100.00;98013.35;3653107;81;44130;-17
2021/01/19 07:52:42;;;;;;;7.40;2.73;;;;;;;1.80;100.00;97997.69;3605615;81;44059;-18
2021/01/19 07:57:50;;;;;;;6.47;2.20;;;;;;;1.78;100.00;98002.27;3624946;80;44062;-17
2021/01/19 08:03:15;;;;;;;4.63;1.97;;;;;;;1.79;100.00;97991.14;3653462;81;44040;-18
2021/01/19 08:08:22;;;;;;;4.10;1.83;;;;;;;1.81;100.00;97970.17;3595201;82;44616;-17
2021/01/19 08:13:28;;;;;;;4.20;2.13;;;;;;;1.89;100.00;97969.55;3597646;81;43476;-18
2021/01/19 08:18:40;;;;;;;3.90;2.03;;;;;;;1.85;100.00;97970.27;3652716;81;43684;-18
2021/01/19 08:23:50;;;;;;;5.23;2.30;;;;;;;1.96;100.00;97955.31;3594774;81;44061;-17
2021/01/19 08:28:57;;;;;;;4.23;2.23;;;;;;;1.94;100.00;97941.33;3610808;80;44536;-18
2021/01/19 08:34:05;;;;;;;3.20;2.00;;;;;;;1.96;100.00;97932.27;3632314;81;44101;-17
2021/01/19 08:39:15;;;;;;;6.63;2.40;;;;;;;1.99;100.00;97915.23;3651198;81;44064;-18
2021/01/19 08:44:21;;;;;;;4.10;2.30;;;;;;;2.01;100.00;97902.69;3641788;81;43224;-17
2021/01/19 08:49:31;;;;;;;4.33;2.17;;;;;;;2.05;100.00;97898.84;3643019;81;43694;-17
2021/01/19 08:54:37;;;;;;;3.87;2.20;;;;;;;2.02;100.00;97901.72;3624534;81;44686;-18
2021/01/19 08:59:51;;;;;;;5.23;2.40;;;;;;;2.08;100.00;97872.50;3647798;80;44043;-17
2021/01/19 09:04:58;;;;;;;5.70;2.13;;;;;;;2.08;100.00;97852.57;3667317;80;43407;-18
2021/01/19 09:10:06;;;;;;;4.00;2.03;;;;;;;2.07;100.00;97853.03;3610744;81;43687;-18
2021/01/19 09:15:16;;;;;;;7.23;2.83;;;;;;;2.05;100.00;97841.71;3618305;81;44063;-18
2021/01/19 09:20:23;;;;;;;4.33;2.20;;;;;;;2.10;100.00;97837.36;3653048;81;43679;-18
2021/01/19 09:25:31;;;;;;;2.77;1.90;;;;;;;2.12;100.00;97818.98;3667458;80;43340;-18
2021/01/19 09:30:38;;;;;;;3.67;2.30;;;;;;;2.15;100.00;97822.73;3669846;80;44002;-18
2021/01/19 09:35:45;;;;;;;4.73;2.10;;;;;;;2.21;100.00;97812.56;3702193;79;44069;-17
2021/01/19 09:40:53;;;;;;;3.97;1.80;;;;;;;2.29;100.00;97786.23;3677584;80;44019;-17
2021/01/19 09:46:01;;;;;;;3.50;2.03;;;;;;;2.30;100.00;97784.77;3666689;80;44179;-17
2021/01/19 09:51:09;;;;;;;5.77;2.10;;;;;;;2.28;100.00;97791.19;3649015;80;43455;-18
2021/01/19 09:56:17;;;;;;;6.00;2.07;;;;;;;2.33;100.00;97771.70;3677734;80;44035;-17
2021/01/19 10:01:24;;;;;;;7.13;1.70;;;;;;;2.30;100.00;97762.17;3674580;80;43750;-18
2021/01/19 10:06:31;;;;;;;4.13;2.27;;;;;;;2.30;100.00;97731.61;3703691;79;43412;-18
2021/01/19 10:11:39;;;;;;;4.77;2.37;;;;;;;2.30;100.00;97722.77;3703480;80;44002;-17
2021/01/19 10:16:48;;;;;;;4.00;2.03;;;;;;;2.28;100.00;97718.09;3703746;80;43686;-17
2021/01/19 10:21:58;;;;;;;7.97;2.40;;;;;;;2.26;100.00;97690.79;3661542;80;44015;-17
2021/01/19 10:27:06;;;;;;;4.10;1.80;;;;;;;2.19;100.00;97673.65;3592968;81;43196;-18
2021/01/19 10:32:13;;;;;;;2.37;1.70;;;;;;;2.30;100.00;97662.97;3634954;81;44044;-17
2021/01/19 10:37:21;;;;;;;3.63;1.90;;;;;;;2.14;100.00;97639.02;3647219;80;43740;-18
2021/01/19 10:42:28;;;;;;;7.67;2.10;;;;;;;2.16;100.00;97626.92;3654132;80;43409;-17
2021/01/19 10:47:40;;;;;;;3.47;1.70;;;;;;;2.13;100.00;97608.09;3650624;81;44020;-17
2021/01/19 10:52:56;;;;;;;3.43;1.43;;;;;;;2.15;100.00;97590.22;3652742;81;43357;-18
2021/01/19 10:58:03;;;;;;;2.23;1.40;;;;;;;2.12;100.00;97579.84;3635427;81;43274;-18
2021/01/19 11:03:10;;;;;;;3.90;1.70;;;;;;;2.06;100.00;97576.36;3646328;81;43377;-18
2021/01/19 11:08:17;;;;;;;1.80;1.30;;;;;;;2.03;100.00;97566.00;3612805;81;42856;-17
2021/01/19 11:13:23;;;;;;;3.13;1.40;;;;;;;1.96;100.00;97551.06;3599678;80;43995;-18
2021/01/19 11:18:30;;;;;;;1.73;1.20;;;;;;;1.95;100.00;97548.52;3639121;81;44020;-18
2021/01/19 11:23:38;;;;;;;2.23;1.30;;;;;;;1.82;100.00;97541.57;3617977;81;43707;-18
2021/01/19 11:28:47;;;;;;;2.10;1.30;;;;;;;1.85;100.00;97525.39;3645001;80;44052;-18
2021/01/19 11:33:53;;;;;;;1.40;1.17;;;;;;;1.76;100.00;97522.19;3699806;80;44116;-19
2021/01/19 11:39:00;;;;;;;2.37;1.30;;;;;;;1.74;100.00;97493.58;3650171;80;44090;-16
2021/01/19 11:44:08;;;;;;;2.57;1.50;;;;;;;1.70;100.00;97496.16;3702894;79;44029;-17
2021/01/19 11:49:13;;;;;;;4.73;1.40;;;;;;;1.63;100.00;97477.23;3703355;80;44394;-17
2021/01/19 11:54:20;;;;;;;1.80;1.40;;;;;;;1.48;100.00;97460.75;3703829;80;44241;-17
2021/01/19 11:59:27;;;;;;;2.43;1.20;;;;;;;1.38;100.00;97445.24;3681530;80;44050;-17
2021/01/19 12:04:33;;;;;;;1.60;1.30;;;;;;;1.25;100.00;97442.78;3653699;80;44016;-17
2021/01/19 12:09:39;;;;;;;3.63;2.13;;;;;;;1.18;100.00;97442.91;3691301;80;43458;-18
2021/01/19 12:14:46;;;;;;;2.87;1.50;;;;;;;1.08;100.00;97436.21;3689252;79;43719;-17
2021/01/19 12:19:52;;;;;;;1.70;1.40;;;;;;;1.04;100.00;97436.95;3694784;80;42938;-17
2021/01/19 12:24:59;;;;;;;2.23;1.33;;;;;;;1.02;100.00;97430.06;3680712;80;44028;-18
2021/01/19 12:30:07;;;;;;;1.87;1.10;;;;;;;0.95;100.00;97436.85;3665757;81;42993;-17
2021/01/19 12:35:15;;;;;;;3.00;1.30;;;;;;;0.87;100.00;97424.21;3621744;81;43486;-17
2021/01/19 12:40:23;;;;;;;1.90;1.40;;;;;;;0.85;100.00;97418.19;3613534;81;44092;-19
2021/01/19 12:45:30;;;;;;;1.80;1.10;;;;;;;0.81;100.00;97417.59;3653370;80;43677;-18
2021/01/19 12:50:35;;;;;;;1.43;1.17;;;;;;;0.83;100.00;97416.14;3653157;81;43670;-18
2021/01/19 12:55:42;;;;;;;2.00;1.20;;;;;;;0.83;100.00;97408.19;3631023;81;43402;-17
2021/01/19 13:00:48;;;;;;;1.40;1.13;;;;;;;0.76;100.00;97406.55;3618149;80;43759;-18
2021/01/19 13:05:56;;;;;;;1.77;1.20;;;;;;;0.75;100.00;97392.92;3651636;81;44090;-17
2021/01/19 13:11:02;;;;;;;1.63;1.20;;;;;;;0.76;100.00;97395.94;3639765;81;43007;-17
2021/01/19 13:16:10;;;;;;;2.00;1.30;;;;;;;0.77;100.00;97392.29;3650006;81;43705;-18
2021/01/19 13:21:16;;;;;;;1.27;0.97;;;;;;;0.74;100.00;97377.98;3651766;80;43412;-17
2021/01/19 13:26:23;;;;;;;1.40;1.10;;;;;;;0.72;100.00;97371.95;3639987;80;43420;-18
2021/01/19 13:31:30;;;;;;;1.33;1.07;;;;;;;0.76;100.00;97376.05;3618612;81;43390;-17
2021/01/19 13:36:37;;;;;;;4.00;1.23;;;;;;;0.81;100.00;97376.50;3650860;81;43448;-17
2021/01/19 13:41:44;;;;;;;1.50;1.10;;;;;;;0.83;100.00;97375.04;3649822;81;43345;-18
2021/01/19 13:46:51;;;;;;;2.23;1.20;;;;;;;0.88;100.00;97360.44;3638666;81;43307;-17
2021/01/19 13:51:57;;;;;;;1.10;1.00;;;;;;;0.90;100.00;97363.81;3644194;80;42988;-17
2021/01/19 13:57:04;;;;;;;0.97;0.70;;;;;;;0.91;100.00;97364.66;3612345;81;43378;-18
2021/01/19 14:02:10;;;;;;;0.90;0.80;;;;;;;0.91;100.00;97369.97;3627593;81;43340;-18
2021/01/19 14:07:16;;;;;;;1.00;0.80;;;;;;;0.95;100.00;97365.25;3604197;81;43690;-17
2021/01/19 14:12:23;;;;;;;1.23;1.00;;;;;;;0.95;100.00;97370.55;3637484;81;43533;-17
2021/01/19 14:17:31;;;;;;;1.80;1.00;;;;;;;0.97;100.00;97367.30;3628127;81;43429;-17
2021/01/19 14:22:39;;;;;;;2.53;1.27;;;;;;;1.02;100.00;97373.05;3643323;80;43421;-17
2021/01/19 14:27:44;;;;;;;3.20;1.60;;;;;;;1.05;100.00;97361.72;3662016;79;43674;-18
2021/01/19 14:32:51;;;;;;;1.50;1.20;;;;;;;1.13;100.00;97370.84;3692259;80;44041;-18
2021/01/19 14:37:57;;;;;;;1.40;1.10;;;;;;;1.15;100.00;97371.05;3702535;80;43559;-17
2021/01/19 14:43:05;;;;;;;1.00;0.80;;;;;;;1.17;100.00;97374.93;3650370;80;43513;-17
2021/01/19 14:48:12;;;;;;;1.60;1.00;;;;;;;1.18;100.00;97373.93;3641188;80;43689;-17
2021/01/19 14:53:19;;;;;;;1.63;0.80;;;;;;;1.22;100.00;97377.55;3698193;80;43394;-17
2021/01/19 14:58:25;;;;;;;1.20;0.97;;;;;;;1.24;100.00;97380.06;3658161;79;44355;-17
2021/01/19 15:03:32;;;;;;;1.03;0.80;;;;;;;1.30;100.00;97380.86;3701095;80;43318;-17
2021/01/19 15:08:39;;;;;;;0.63;0.60;;;;;;;1.31;100.00;97384.38;3702260;80;44025;-17
2021/01/19 15:13:45;;;;;;;2.10;1.00;;;;;;;1.31;100.00;97384.38;3702263;80;43976;-17
2021/01/19 15:18:53;;;;;;;3.17;0.90;;;;;;;1.37;100.00;97381.20;3699993;80;44138;-17
2021/01/19 15:23:59;;;;;;;1.10;0.90;;;;;;;1.38;100.00;97378.90;3643953;80;44164;-18
2021/01/19 15:29:06;;;;;;;1.00;0.90;;;;;;;1.46;100.00;97391.06;3638637;80;44102;-18
2021/01/19 15:34:12;;;;;;;1.40;0.90;;;;;;;1.47;100.00;97384.75;3648989;81;44469;-18
2021/01/19 15:39:18;;;;;;;1.40;0.70;;;;;;;1.50;100.00;97391.14;3596165;81;44018;-17
2021/01/19 15:44:26;;;;;;;1.63;0.87;;;;;;;1.56;100.00;97392.92;3646826;81;43436;-17
2021/01/19 15:49:32;;;;;;;1.03;0.70;;;;;;;1.59;100.00;97394.83;3614547;81;44126;-17
2021/01/19 15:54:38;;;;;;;1.73;0.93;;;;;;;1.65;100.00;97403.59;3651671;81;43369;-17
2021/01/19 15:59:44;;;;;;;1.50;0.80;;;;;;;1.74;100.00;97394.00;3653233;80;44596;-17
2021/01/19 16:04:50;;;;;;;1.00;0.50;;;;;;;1.83;100.00;97410.47;3652799;81;43112;-18
2021/01/19 16:09:58;;;;;;;0.70;0.70;;;;;;;1.89;100.00;97401.64;3630302;81;43404;-17
2021/01/19 16:15:06;;;;;;;2.17;0.70;;;;;;;1.94;100.00;97402.92;3610013;81;43713;-18
2021/01/19 16:20:15;;;;;;;0.80;0.60;;;;;;;2.00;100.00;97409.52;3616556;81;44979;-17
2021/01/19 16:25:22;;;;;;;1.40;0.77;;;;;;;2.05;100.00;97408.66;3624506;80;44085;-17
2021/01/19 16:30:30;;;;;;;0.83;0.70;;;;;;;2.14;100.00;97410.98;3672306;79;44218;-18
2021/01/19 16:35:36;;;;;;;0.80;0.80;;;;;;;2.12;100.00;97424.87;3582652;81;43375;-18
2021/01/19 16:40:43;;;;;;;0.80;0.73;;;;;;;2.14;100.00;97417.15;3686193;80;43719;-18
2021/01/19 16:45:50;;;;;;;0.77;0.70;;;;;;;2.22;100.00;97420.47;3678689;80;44055;-17
2021/01/19 16:50:58;;;;;;;1.27;0.90;;;;;;;2.26;100.00;97413.06;3679236;80;43703;-16
2021/01/19 16:56:13;;;;;;;2.67;0.87;;;;;;;2.36;100.00;97409.95;3675503;80;43305;-17
2021/01/19 17:01:19;;;;;;;1.03;0.90;;;;;;;2.39;100.00;97409.70;3643803;80;44088;-19
2021/01/19 17:06:26;;;;;;;1.30;1.20;;;;;;;2.39;100.00;97415.02;3692391;79;44043;-19
2021/01/19 17:11:32;;;;;;;1.33;1.10;;;;;;;2.45;100.00;97411.80;3665115;80;43059;-17
2021/01/19 17:16:38;;;;;;;1.50;1.30;;;;;;;2.41;100.00;97409.05;3675790;80;44041;-18
2021/01/19 17:21:45;;;;;;;1.27;1.10;;;;;;;2.46;100.00;97410.00;3662532;80;43433;-19
2021/01/19 17:26:51;;;;;;;2.17;1.30;;;;;;;2.45;100.00;97413.12;3667250;80;44071;-18
2021/01/19 17:31:58;;;;;;;1.70;1.37;;;;;;;2.52;100.00;97405.96;3660491;80;43030;-18
2021/01/19 17:37:04;;;;;;;1.80;1.40;;;;;;;2.62;100.00;97417.45;3673172;79;43356;-19
2021/01/19 17:42:12;;;;;;;1.53;1.43;;;;;;;2.67;100.00;97415.22;3693384;80;43731;-18
2021/01/19 17:47:19;;;;;;;3.00;1.70;;;;;;;2.75;100.00;97406.09;3691324;79;43460;-19
2021/01/19 17:52:25;;;;;;;2.50;1.90;;;;;;;2.83;100.00;97414.69;3682754;80;43418;-17
2021/01/19 17:57:31;;;;;;;2.27;1.90;;;;;;;2.88;100.00;97411.64;3685088;80;43384;-17
2021/01/19 18:02:37;;;;;;;2.83;2.00;;;;;;;2.92;100.00;97417.87;3685854;80;44771;-17
2021/01/19 18:07:43;;;;;;;1.93;1.73;;;;;;;2.93;100.00;97415.56;3712636;79;43732;-17
2021/01/19 18:12:48;;;;;;;2.27;1.80;;;;;;;2.96;100.00;97423.75;3692747;79;43364;-17
2021/01/19 18:17:55;;;;;;;2.43;1.70;;;;;;;3.04;100.00;97443.02;3665147;80;43376;-17
2021/01/19 18:23:01;;;;;;;3.57;2.03;;;;;;;3.06;100.00;97429.06;3688265;80;44104;-18
2021/01/19 18:28:07;;;;;;;3.10;2.20;;;;;;;3.07;100.00;97431.61;3675609;80;43707;-18
2021/01/19 18:33:12;;;;;;;4.40;2.00;;;;;;;3.10;100.00;97454.94;3657062;81;43419;-18
2021/01/19 18:38:18;;;;;;;2.80;2.10;;;;;;;3.21;100.00;97459.62;3651469;81;43178;-17
2021/01/19 18:43:24;;;;;;;2.70;1.77;;;;;;;3.32;100.00;97468.45;3642913;80;44933;-18
2021/01/19 18:48:31;;;;;;;2.17;1.97;;;;;;;3.30;100.00;97477.92;3646664;80;44290;-17
2021/01/19 18:53:37;;;;;;;2.53;2.00;;;;;;;3.39;100.00;97469.60;3651844;81;43725;-18
2021/01/19 18:58:44;;;;;;;2.20;1.90;;;;;;;3.47;100.00;97464.41;3633420;81;43715;-18
2021/01/19 19:03:51;;;;;;;2.00;1.80;;;;;;;3.53;100.00;97472.33;3615195;81;43550;-17
2021/01/19 19:08:58;;;;;;;2.37;1.70;;;;;;;3.66;100.00;97500.86;3648324;81;43726;-18
2021/01/19 19:14:10;;;;;;;1.70;1.53;;;;;;;3.70;100.00;97507.56;3632855;80;44006;-18
2021/01/19 19:19:36;;;;;;;1.93;1.40;;;;;;;3.77;100.00;97493.20;3603165;81;44088;-18
2021/01/19 19:24:46;;;;;;;2.40;1.87;;;;;;;3.79;100.00;97493.08;3652851;81;44031;-18
2021/01/19 19:29:54;;;;;;;2.63;1.80;;;;;;;3.77;100.00;97477.21;3640355;80;26730;-18
2021/01/19 19:35:00;;;;;;;2.10;1.80;;;;;;;3.78;100.00;97485.55;3700927;80;43446;-18
2021/01/19 19:40:08;;;;;;;2.37;2.00;;;;;;;3.76;100.00;97492.02;3658793;80;43508;-18
2021/01/19 19:45:15;;;;;;;2.73;2.20;;;;;;;3.73;100.00;97505.61;3704164;79;42891;-18
2021/01/19 19:50:21;;;;;;;2.57;2.17;;;;;;;3.83;100.00;97509.11;3685033;80;43048;-18
2021/01/19 19:55:28;;;;;;;3.77;2.47;;;;;;;3.87;100.00;97512.35;3702171;80;44061;-19
2021/01/19 20:00:34;;;;;;;3.27;2.33;;;;;;;3.79;100.00;97524.53;3681449;80;43683;-18
2021/01/19 20:05:41;;;;;;;2.20;2.00;;;;;;;3.85;100.00;97517.80;3644327;80;43440;-18
2021/01/19 20:10:48;;;;;;;2.83;2.50;;;;;;;3.70;100.00;97516.89;3656848;80;43475;-18
2021/01/19 20:15:55;;;;;;;2.80;2.40;;;;;;;3.80;100.00;97536.88;3657044;79;43686;-19
2021/01/19 20:21:01;;;;;;;2.93;2.43;;;;;;;3.73;100.00;97548.23;3694097;80;43686;-17
2021/01/19 20:26:14;;;;;;;4.80;2.70;;;;;;;3.62;100.00;97551.89;3656817;80;44072;-17
2021/01/19 20:31:18;;;;;;;4.97;2.50;;;;;;;3.47;100.00;97542.97;3687435;80;44177;-17
2021/01/19 20:36:24;;;;;;;2.90;2.40;;;;;;;3.34;100.00;97537.91;3697000;80;44071;-17
2021/01/19 20:41:30;;;;;;;2.63;2.10;;;;;;;3.35;100.00;97523.59;3687862;80;43420;-18
2021/01/19 20:46:36;;;;;;;3.07;2.10;;;;;;;3.29;100.00;97514.02;3675874;80;44026;-18
2021/01/19 20:51:43;;;;;;;2.50;1.90;;;;;;;3.29;100.00;97512.18;3686955;79;44046;-17
2021/01/19 20:56:49;;;;;;;2.30;1.93;;;;;;;3.28;100.00;97516.32;3677411;80;43738;-17
2021/01/19 21:01:56;;;;;;;2.23;2.03;;;;;;;3.30;100.00;97509.88;3680902;80;43466;-17
2021/01/19 21:07:02;;;;;;;2.80;1.90;;;;;;;3.27;100.00;97503.48;3694635;80;43242;-17
2021/01/19 21:12:09;;;;;;;2.13;1.77;;;;;;;3.28;100.00;97518.98;3684609;80;44432;-17
2021/01/19 21:17:15;;;;;;;2.10;1.90;;;;;;;3.36;100.00;97529.27;3703350;80;44048;-17
2021/01/19 21:22:21;;;;;;;1.83;1.70;;;;;;;3.45;100.00;97517.46;3698029;79;44018;-18
2021/01/19 21:27:27;;;;;;;3.53;2.30;;;;;;;3.53;100.00;97523.75;3652672;80;43374;-17
2021/01/19 21:32:34;;;;;;;2.80;2.50;;;;;;;3.57;100.00;97520.82;3644857;80;43428;-18
2021/01/19 21:37:40;;;;;;;3.57;2.30;;;;;;;3.57;100.00;97536.33;3669586;80;43759;-16
2021/01/19 21:42:46;;;;;;;3.30;2.30;;;;;;;3.61;100.00;97540.38;3691240;80;43151;-16
2021/01/19 21:47:52;;;;;;;3.40;3.03;;;;;;;3.66;100.00;97532.82;3702182;80;43658;-16
2021/01/19 21:52:58;;;;;;;2.90;2.30;;;;;;;3.62;100.00;97526.08;3690566;79;44069;-17
2021/01/19 21:58:05;;;;;;;3.07;2.70;;;;;;;3.68;100.00;97531.34;3691461;79;43423;-16
2021/01/19 22:03:10;;;;;;;3.33;2.70;;;;;;;3.68;100.00;97525.53;3696700;80;43721;-16
2021/01/19 22:08:17;;;;;;;3.10;2.80;;;;;;;3.60;100.00;97532.53;3664409;80;43314;-16
2021/01/19 22:13:22;;;;;;;4.97;3.30;;;;;;;3.64;100.00;97510.80;3698812;80;44524;-16
2021/01/19 22:18:28;;;;;;;4.57;3.40;;;;;;;3.59;100.00;97506.38;3703373;80;43051;-16
2021/01/19 22:23:35;;;;;;;3.97;3.33;;;;;;;3.57;100.00;97503.51;3698168;80;44072;-16
2021/01/19 22:28:42;;;;;;;4.33;3.43;;;;;;;3.60;100.00;97491.25;3716031;79;44043;-16
2021/01/19 22:33:48;;;;;;;3.33;3.03;;;;;;;3.62;100.00;97478.64;3662153;80;43234;-16
2021/01/19 22:38:55;;;;;;;3.33;2.87;;;;;;;3.73;100.00;97473.64;3685597;80;43722;-17
2021/01/19 22:44:01;;;;;;;3.33;3.00;;;;;;;3.69;100.00;97471.28;3653861;80;43507;-16
2021/01/19 22:49:06;;;;;;;5.20;3.80;;;;;;;3.68;100.00;97466.08;3684454;80;43046;-16
2021/01/19 22:54:12;;;;;;;5.37;4.00;;;;;;;3.62;100.00;97481.30;3644331;81;44786;-18
2021/01/19 22:59:18;;;;;;;2.93;2.57;;;;;;;3.62;100.00;97479.98;3675999;79;42876;-15
2021/01/19 23:04:24;;;;;;;2.90;2.30;;;;;;;3.50;100.00;97471.27;3697409;80;43441;-16
2021/01/19 23:09:30;;;;;;;3.13;2.20;;;;;;;3.33;100.00;97482.98;3694060;80;44031;-17
2021/01/19 23:14:36;;;;;;;2.73;2.27;;;;;;;3.27;100.00;97475.53;3679316;80;44038;-16
2021/01/19 23:19:42;;;;;;;4.57;2.83;;;;;;;3.20;100.00;97467.77;3659200;80;44053;-16
2021/01/19 23:24:48;;;;;;;5.10;3.03;;;;;;;3.11;100.00;97463.27;3703390;80;44038;-16
2021/01/19 23:29:54;;;;;;;5.30;3.60;;;;;;;3.06;100.00;97466.32;3672207;79;43083;-17
2021/01/19 23:35:00;;;;;;;5.50;3.60;;;;;;;3.04;100.00;97467.80;3652170;81;43628;-17
2021/01/19 23:40:08;;;;;;;4.63;3.67;;;;;;;3.11;100.00;97448.64;3609789;81;44066;-17
2021/01/19 23:45:15;;;;;;;6.00;3.57;;;;;;;3.12;100.00;97460.47;3604914;81;43065;-17
2021/01/19 23:50:22;;;;;;;6.80;3.90;;;;;;;3.04;100.00;97455.83;3613576;81;43330;-17
2021/01/19 23:55:27;;;;;;;4.77;3.33;;;;;;;3.00;100.00;97445.09;3595039;81;42680;-17
